Frederika, Iowa
Current Conditions -  °F | °C
As of 7:55 AM on Friday 24 Oct 2014 (Local Time) from KCCY Reporting Station
Moderate Fog Moderate Fog  
Wind Chill: 42°   Ceiling: 300
Heat Index: 46°   Visibility: 0mi
Dew Point: 46°   Wind: 8mph
Humidity: 100%   Direction: 140°SE
Pressure: 29.96"   Gusts: NA
Location:  42.88°N, 92.31°W
Report Text: KCCY 241255Z AUTO 14007KT M1/4SM FG OVC003 08/08 A2996 RMK AO2
Loading
Personal Weather Stations






























Interactive Weather Map New forecast layout! Learn more

10-Day Weather Forecast

Advertisements
Track Severe Weather on mobile